Time;durP1;ratioP1;P1;durP2;ratioP2;P2;SDS_P1;SDS_P2;PMS_P1;PMS_P2;Temp;Humidity;BMP_temperature;BMP_pressure;BME280_temperature;BME280_humidity;BME280_pressure;Samples;Min_cycle;Max_cycle;Signal;HPM_P1;HPM_P2
2022/05/03 00:00:12;;;;;;;5.07;2.00;;;11.40;99.90;;;;;;4918036;29;20182;-79
2022/05/03 00:03:24;;;;;;;4.60;2.35;;;11.30;99.90;;;;;;4917420;29;20167;-79
2022/05/03 00:06:21;;;;;;;3.20;2.50;;;11.20;99.90;;;;;;4895267;29;20198;-79
2022/05/03 00:08:53;;;;;;;7.32;2.30;;;11.20;99.90;;;;;;4917591;29;20175;-79
2022/05/03 00:11:51;;;;;;;2.58;2.30;;;11.30;99.90;;;;;;4917838;29;20186;-79
2022/05/03 00:14:17;;;;;;;7.07;2.53;;;11.10;99.90;;;;;;4917384;29;20266;-79
2022/05/03 00:16:44;;;;;;;4.30;2.58;;;11.10;99.90;;;;;;4917795;29;20596;-79
2022/05/03 00:19:11;;;;;;;4.15;2.45;;;10.90;99.90;;;;;;4917664;29;20262;-79
2022/05/03 00:21:38;;;;;;;3.90;2.40;;;10.90;99.90;;;;;;4917665;29;20198;-79
2022/05/03 00:24:05;;;;;;;3.38;2.33;;;10.80;99.90;;;;;;4917761;29;20189;-79
2022/05/03 00:26:32;;;;;;;6.20;2.50;;;10.70;99.90;;;;;;4917753;29;20167;-79
2022/05/03 00:28:59;;;;;;;4.38;2.13;;;10.70;99.90;;;;;;4918643;29;20536;-80
2022/05/03 00:31:26;;;;;;;5.63;2.13;;;10.60;99.90;;;;;;4920985;29;20608;-79
2022/05/03 00:33:57;;;;;;;3.22;1.90;;;10.40;99.90;;;;;;4920690;29;20222;-79
2022/05/03 00:36:23;;;;;;;2.47;2.08;;;10.30;99.90;;;;;;4921320;29;20242;-79
2022/05/03 00:38:50;;;;;;;3.70;1.80;;;10.20;99.90;;;;;;4920802;29;20183;-79
2022/05/03 00:41:50;;;;;;;2.75;2.20;;;10.20;99.90;;;;;;4921047;29;20265;-79
2022/05/03 00:47:19;;;;;;;5.07;2.25;;;10.30;99.90;;;;;;4920632;29;20261;-79
2022/05/03 00:49:55;;;;;;;2.95;1.70;;;10.30;99.90;;;;;;4920784;29;20221;-79
2022/05/03 00:52:36;;;;;;;2.37;1.40;;;10.30;99.90;;;;;;4921105;29;20606;-79
2022/05/03 00:55:04;;;;;;;3.57;1.43;;;10.20;99.90;;;;;;4919303;29;20190;-79
2022/05/03 00:57:41;;;;;;;3.13;1.47;;;10.00;99.90;;;;;;4919501;29;20604;-79
2022/05/03 01:00:14;;;;;;;2.50;1.27;;;9.90;99.90;;;;;;4920143;29;20205;-79
2022/05/03 01:03:11;;;;;;;2.03;1.83;;;9.90;99.90;;;;;;4920249;29;20258;-79
2022/05/03 01:06:12;;;;;;;1.77;1.40;;;9.70;99.90;;;;;;4919222;29;20266;-80
2022/05/03 01:09:01;;;;;;;2.40;1.30;;;9.80;99.90;;;;;;4920483;29;20505;-79
2022/05/03 01:11:34;;;;;;;2.13;1.50;;;9.80;99.90;;;;;;4919994;29;20266;-79
2022/05/03 01:14:06;;;;;;;1.60;1.40;;;9.90;99.90;;;;;;4920512;29;20220;-79
2022/05/03 01:16:46;;;;;;;5.22;1.17;;;10.00;99.90;;;;;;4919019;29;20206;-79
2022/05/03 01:21:50;;;;;;;2.83;1.40;;;10.00;99.90;;;;;;4991490;23;20230;-79
2022/05/03 01:24:50;;;;;;;2.53;1.30;;;10.00;99.90;;;;;;4934388;29;20183;-79
2022/05/03 01:27:16;;;;;;;2.53;1.30;;;10.00;99.90;;;;;;4916317;29;20201;-79
2022/05/03 01:29:45;;;;;;;2.23;1.40;;;9.90;99.90;;;;;;4958102;29;20269;-79
2022/05/03 01:32:12;;;;;;;1.40;1.10;;;9.80;99.90;;;;;;4957912;28;20204;-79
2022/05/03 01:34:40;;;;;;;1.77;1.10;;;9.80;99.90;;;;;;4957845;28;20216;-79
2022/05/03 01:37:39;;;;;;;5.00;1.20;;;9.80;99.90;;;;;;4958096;28;20259;-79
2022/05/03 01:40:11;;;;;;;2.37;1.30;;;9.80;99.90;;;;;;4957176;28;20174;-80
2022/05/03 01:43:04;;;;;;;2.63;1.30;;;9.60;99.90;;;;;;4957659;28;20166;-79
2022/05/03 01:45:43;;;;;;;3.07;1.43;;;9.50;99.90;;;;;;4957883;29;20166;-80
2022/05/03 01:48:17;;;;;;;4.10;1.37;;;9.50;99.90;;;;;;4957736;28;20504;-80
2022/05/03 01:51:09;;;;;;;2.23;1.40;;;9.40;99.90;;;;;;4957567;28;20662;-79
2022/05/03 01:53:45;;;;;;;2.07;1.43;;;9.40;99.90;;;;;;4956264;29;20597;-79
2022/05/03 01:56:29;;;;;;;1.93;1.13;;;9.40;99.90;;;;;;4956495;29;20180;-79
2022/05/03 01:59:15;;;;;;;1.50;1.20;;;9.40;99.90;;;;;;4957687;28;20169;-79
2022/05/03 02:01:41;;;;;;;3.43;1.63;;;9.40;99.90;;;;;;4957403;28;20264;-79
2022/05/03 02:04:43;;;;;;;2.30;1.03;;;9.40;99.90;;;;;;4957698;29;20651;-79
2022/05/03 02:07:27;;;;;;;3.77;1.27;;;9.30;99.90;;;;;;4957371;29;20532;-79
2022/05/03 02:10:06;;;;;;;3.17;1.10;;;9.20;99.90;;;;;;4956064;29;20268;-79
2022/05/03 02:12:33;;;;;;;1.77;1.10;;;9.10;99.90;;;;;;4957028;28;20165;-79
2022/05/03 02:15:11;;;;;;;2.20;1.10;;;9.00;99.90;;;;;;4957319;28;20589;-79
2022/05/03 02:17:48;;;;;;;3.50;1.20;;;9.00;99.90;;;;;;4956050;29;20177;-79
2022/05/03 02:20:39;;;;;;;1.30;1.10;;;9.00;99.90;;;;;;4955700;29;20224;-77
2022/05/03 02:23:23;;;;;;;6.40;1.43;;;9.10;99.90;;;;;;4956987;29;20181;-79
2022/05/03 02:26:09;;;;;;;1.20;1.03;;;9.20;99.90;;;;;;4957211;29;20165;-79
2022/05/03 02:28:41;;;;;;;1.20;1.10;;;9.20;99.90;;;;;;4955133;29;20196;-79
2022/05/03 02:31:12;;;;;;;2.53;1.20;;;9.10;99.90;;;;;;4957063;28;20162;-79
2022/05/03 02:33:44;;;;;;;2.77;1.40;;;9.00;99.90;;;;;;4956996;28;20201;-79
2022/05/03 02:36:15;;;;;;;1.77;1.43;;;9.00;99.90;;;;;;4956978;28;20197;-79
2022/05/03 02:38:58;;;;;;;2.13;1.40;;;8.90;99.90;;;;;;4956817;28;20496;-79
2022/05/03 02:41:26;;;;;;;2.87;1.70;;;8.90;99.90;;;;;;4955716;29;20165;-79
2022/05/03 02:43:52;;;;;;;2.33;1.60;;;8.90;99.90;;;;;;4956825;28;20181;-79
2022/05/03 02:46:27;;;;;;;1.83;1.50;;;8.80;99.90;;;;;;4956980;28;20200;-79
2022/05/03 02:49:04;;;;;;;3.17;1.90;;;8.80;99.90;;;;;;4956726;29;20619;-79
2022/05/03 02:51:49;;;;;;;3.30;1.90;;;8.90;99.90;;;;;;4956450;28;20185;-79
2022/05/03 02:54:20;;;;;;;1.63;1.50;;;8.90;99.90;;;;;;4956728;28;20201;-79
2022/05/03 02:56:59;;;;;;;3.20;1.80;;;8.80;99.90;;;;;;4956437;29;20209;-79
2022/05/03 03:01:47;;;;;;;4.17;1.80;;;8.70;99.90;;;;;;4956572;28;20173;-79
2022/05/03 03:02:29;;;;;;;4.57;1.63;;;8.70;99.90;;;;;;4956369;29;20506;-79
2022/05/03 03:05:07;;;;;;;2.83;1.60;;;8.70;99.90;;;;;;4956816;28;20188;-79
2022/05/03 03:07:49;;;;;;;2.73;1.47;;;8.70;99.90;;;;;;4956552;28;20162;-79
2022/05/03 03:10:20;;;;;;;1.60;1.50;;;8.70;99.90;;;;;;4955095;29;20177;-79
2022/05/03 03:13:11;;;;;;;1.73;1.43;;;8.70;99.90;;;;;;4954813;29;20208;-79
2022/05/03 03:15:40;;;;;;;3.47;1.67;;;8.60;99.90;;;;;;4953351;28;20173;-79
2022/05/03 03:18:13;;;;;;;3.23;1.70;;;8.60;99.90;;;;;;4937152;29;20217;-79
2022/05/03 03:20:49;;;;;;;2.13;1.60;;;8.60;99.90;;;;;;4936969;29;20272;-80
2022/05/03 03:23:15;;;;;;;1.90;1.67;;;8.60;99.90;;;;;;4937189;29;20177;-80
2022/05/03 03:25:45;;;;;;;3.40;1.67;;;8.60;99.90;;;;;;4937267;29;20621;-80
2022/05/03 03:28:13;;;;;;;2.53;1.50;;;8.60;99.90;;;;;;4952457;29;20235;-80
2022/05/03 03:30:41;;;;;;;4.00;1.63;;;8.60;99.90;;;;;;4956288;28;20177;-80
2022/05/03 03:33:07;;;;;;;2.13;1.43;;;8.50;99.90;;;;;;4955940;28;20212;-79
2022/05/03 03:35:35;;;;;;;4.90;1.60;;;8.50;99.90;;;;;;4956233;28;20177;-80
2022/05/03 03:38:01;;;;;;;2.53;1.50;;;8.60;99.90;;;;;;4954832;29;20185;-80
2022/05/03 03:40:27;;;;;;;5.20;1.40;;;8.50;99.90;;;;;;4956055;28;20296;-79
2022/05/03 03:42:54;;;;;;;2.10;1.30;;;8.60;99.90;;;;;;4955767;29;20256;-80
2022/05/03 03:45:20;;;;;;;2.43;1.63;;;8.60;99.90;;;;;;4956245;28;20173;-79
2022/05/03 03:47:46;;;;;;;1.67;1.50;;;8.60;99.90;;;;;;4955884;29;20622;-79
2022/05/03 03:50:14;;;;;;;3.73;1.37;;;8.60;99.90;;;;;;4954810;29;20208;-80
2022/05/03 03:52:42;;;;;;;3.40;1.70;;;8.70;99.90;;;;;;4956124;28;20181;-79
2022/05/03 03:55:08;;;;;;;1.80;1.60;;;8.70;99.90;;;;;;4954843;29;20550;-80
2022/05/03 03:57:36;;;;;;;4.00;1.50;;;8.60;99.90;;;;;;4955608;28;20530;-80
2022/05/03 04:00:07;;;;;;;3.67;1.60;;;8.50;99.90;;;;;;4955860;28;20579;-79
2022/05/03 04:02:34;;;;;;;2.97;1.40;;;8.50;99.90;;;;;;4954382;28;20609;-79
2022/05/03 04:05:00;;;;;;;2.10;1.40;;;8.40;99.90;;;;;;4959507;28;20252;-79
2022/05/03 04:07:26;;;;;;;1.73;1.30;;;8.50;99.90;;;;;;4959669;28;20181;-79
2022/05/03 04:09:52;;;;;;;1.67;1.40;;;8.60;99.90;;;;;;4957980;29;20489;-79
2022/05/03 04:12:20;;;;;;;1.70;1.50;;;8.60;99.90;;;;;;4959239;28;20216;-79
2022/05/03 04:14:46;;;;;;;2.90;1.77;;;8.60;99.90;;;;;;4959369;28;20304;-79
2022/05/03 04:17:12;;;;;;;1.83;1.50;;;8.60;99.90;;;;;;4959395;28;20264;-79
2022/05/03 04:19:37;;;;;;;2.90;1.50;;;8.60;99.90;;;;;;4959269;29;20184;-79
2022/05/03 04:22:12;;;;;;;3.33;1.83;;;8.60;99.90;;;;;;4959237;29;20196;-80
2022/05/03 04:24:40;;;;;;;1.87;1.33;;;8.60;99.90;;;;;;4959368;29;20172;-80
2022/05/03 04:27:06;;;;;;;3.70;1.70;;;8.50;99.90;;;;;;4958983;28;20272;-79
2022/05/03 04:29:32;;;;;;;1.53;1.43;;;8.40;99.90;;;;;;4957712;29;20188;-79
2022/05/03 04:31:58;;;;;;;3.17;1.70;;;8.30;99.90;;;;;;4959110;28;20181;-80
2022/05/03 04:34:23;;;;;;;2.80;1.30;;;8.30;99.90;;;;;;4959163;29;20551;-79
2022/05/03 04:36:49;;;;;;;2.33;1.80;;;8.40;99.90;;;;;;4955009;29;20322;-79
2022/05/03 04:39:15;;;;;;;4.17;1.60;;;8.40;99.90;;;;;;4939518;29;20265;-80
2022/05/03 04:41:40;;;;;;;2.03;1.73;;;8.50;99.90;;;;;;4939701;29;20182;-79
2022/05/03 04:44:06;;;;;;;2.43;1.70;;;8.40;99.90;;;;;;4939414;29;20182;-79
2022/05/03 04:46:32;;;;;;;1.70;1.60;;;8.40;99.90;;;;;;4938488;29;20177;-79
2022/05/03 04:48:57;;;;;;;4.70;1.90;;;8.40;99.90;;;;;;4939619;29;20508;-79
2022/05/03 04:51:25;;;;;;;2.93;1.67;;;8.50;99.90;;;;;;4939283;29;20300;-79
2022/05/03 04:53:52;;;;;;;2.50;1.73;;;8.50;99.90;;;;;;4938283;29;20241;-80
2022/05/03 04:56:25;;;;;;;2.60;1.60;;;8.60;99.90;;;;;;4940270;29;20178;-79
2022/05/03 04:58:55;;;;;;;2.90;1.73;;;8.50;99.90;;;;;;4958195;28;20177;-78
2022/05/03 05:01:22;;;;;;;5.77;1.73;;;8.60;99.90;;;;;;4957373;29;20192;-79
2022/05/03 05:03:47;;;;;;;3.17;1.80;;;8.70;99.90;;;;;;4958114;28;20603;-79
2022/05/03 05:06:13;;;;;;;2.03;1.50;;;8.70;99.90;;;;;;4958629;28;20197;-79
2022/05/03 05:08:40;;;;;;;2.20;1.80;;;8.80;99.90;;;;;;4958494;28;20201;-78
2022/05/03 05:11:06;;;;;;;6.00;1.90;;;8.90;99.90;;;;;;4958461;28;20228;-78
2022/05/03 05:13:33;;;;;;;4.00;1.80;;;9.00;99.90;;;;;;4958052;28;20213;-79
2022/05/03 05:15:59;;;;;;;4.67;1.70;;;9.10;99.90;;;;;;4957443;28;20196;-78
2022/05/03 05:18:26;;;;;;;1.87;1.73;;;9.10;99.90;;;;;;4958256;28;20516;-79
2022/05/03 05:20:52;;;;;;;2.40;1.70;;;9.20;99.90;;;;;;4957090;29;20688;-78
2022/05/03 05:23:18;;;;;;;2.23;1.50;;;9.20;99.90;;;;;;4958238;29;20260;-79
2022/05/03 05:25:44;;;;;;;3.07;1.60;;;9.20;99.90;;;;;;4958101;28;20509;-79
2022/05/03 05:28:10;;;;;;;3.33;1.93;;;9.20;99.90;;;;;;4957897;28;20635;-79
2022/05/03 05:30:35;;;;;;;4.23;1.70;;;9.20;99.90;;;;;;4958205;28;20324;-79
2022/05/03 05:33:01;;;;;;;2.70;1.87;;;9.20;99.90;;;;;;4958073;29;20205;-79
2022/05/03 05:35:27;;;;;;;4.07;1.90;;;9.30;99.90;;;;;;4958242;29;20187;-79
2022/05/03 05:37:52;;;;;;;4.27;1.90;;;9.30;99.90;;;;;;4957880;29;20181;-78
2022/05/03 05:40:18;;;;;;;3.17;1.97;;;9.40;99.90;;;;;;4957891;29;20209;-79
2022/05/03 05:42:43;;;;;;;3.87;1.53;;;9.40;99.90;;;;;;4957576;28;20178;-79
2022/05/03 05:45:10;;;;;;;3.07;2.00;;;9.50;99.90;;;;;;4958057;29;20177;-78
2022/05/03 05:47:35;;;;;;;3.17;1.80;;;9.50;99.90;;;;;;4957778;28;20188;-78
2022/05/03 05:50:01;;;;;;;9.40;1.90;;;9.60;99.90;;;;;;4957755;29;20189;-78
2022/05/03 05:55:10;;;;;;;2.03;1.67;;;9.70;99.90;;;;;;4957658;29;20180;-78
2022/05/03 05:57:36;;;;;;;5.30;1.90;;;9.80;99.90;;;;;;4957332;29;20185;-79
2022/05/03 06:00:03;;;;;;;3.50;1.63;;;9.80;99.90;;;;;;4957526;28;20528;-79
2022/05/03 06:02:29;;;;;;;2.43;1.60;;;9.90;99.90;;;;;;4957541;28;20642;-79
2022/05/03 06:04:55;;;;;;;5.43;1.70;;;9.90;99.90;;;;;;4957582;28;20181;-79
2022/05/03 06:07:20;;;;;;;3.73;1.70;;;9.90;99.90;;;;;;4957367;29;20190;-79
2022/05/03 06:09:46;;;;;;;3.57;1.70;;;9.90;99.90;;;;;;4957250;29;20192;-79
2022/05/03 06:12:11;;;;;;;2.17;1.73;;;9.90;99.90;;;;;;4957171;29;20184;-78
2022/05/03 06:14:38;;;;;;;5.27;1.60;;;10.00;99.90;;;;;;4957173;29;20209;-79
2022/05/03 06:17:04;;;;;;;1.97;1.77;;;10.00;99.90;;;;;;4957357;28;20166;-79
2022/05/03 06:19:29;;;;;;;3.27;1.83;;;10.10;99.90;;;;;;4957273;29;20181;-79
2022/05/03 06:21:55;;;;;;;3.17;1.87;;;10.20;99.90;;;;;;4956801;29;20233;-79
2022/05/03 06:24:21;;;;;;;3.00;1.50;;;10.20;99.90;;;;;;4957178;29;20192;-79
2022/05/03 06:26:47;;;;;;;2.77;1.60;;;10.20;99.90;;;;;;4956881;28;20226;-79
2022/05/03 06:29:13;;;;;;;2.58;1.70;;;10.30;99.90;;;;;;4956590;29;20175;-79
2022/05/03 06:31:39;;;;;;;2.37;1.50;;;10.20;99.90;;;;;;4957272;29;20185;-79
2022/05/03 06:34:05;;;;;;;4.87;1.70;;;10.10;99.90;;;;;;4956991;28;20223;-79
2022/05/03 06:36:33;;;;;;;2.97;1.70;;;10.10;99.90;;;;;;4956871;28;20207;-78
2022/05/03 06:38:59;;;;;;;2.30;1.70;;;10.20;99.90;;;;;;4956967;28;20208;-78
2022/05/03 06:41:25;;;;;;;1.73;1.50;;;10.30;99.90;;;;;;4956790;28;20183;-79
2022/05/03 06:43:50;;;;;;;4.43;1.50;;;10.30;99.90;;;;;;4956548;29;20189;-79
2022/05/03 06:46:17;;;;;;;3.53;1.70;;;10.40;99.90;;;;;;4956887;29;20589;-79
2022/05/03 06:48:42;;;;;;;5.93;1.80;;;10.60;99.90;;;;;;4956682;29;20185;-79
2022/05/03 06:51:08;;;;;;;2.97;1.40;;;10.60;99.90;;;;;;4955437;29;20181;-79
2022/05/03 06:53:34;;;;;;;1.58;1.40;;;10.80;99.90;;;;;;4956525;29;20213;-79
2022/05/03 06:56:00;;;;;;;3.58;1.10;;;11.00;99.90;;;;;;4956749;29;20173;-80
2022/05/03 06:58:25;;;;;;;1.93;1.13;;;11.10;99.90;;;;;;4956308;28;20192;-79
2022/05/03 07:00:51;;;;;;;4.05;1.90;;;11.30;99.10;;;;;;4956635;29;20192;-79
2022/05/03 07:03:17;;;;;;;3.92;1.63;;;11.20;99.90;;;;;;4956512;29;20496;-79
2022/05/03 07:05:44;;;;;;;3.15;1.90;;;11.30;99.90;;;;;;4956392;28;20185;-80
2022/05/03 07:08:10;;;;;;;3.33;1.40;;;11.30;99.90;;;;;;4956785;28;20193;-80
2022/05/03 07:10:37;;;;;;;2.13;1.30;;;11.50;99.40;;;;;;4956500;28;20256;-79
2022/05/03 07:13:03;;;;;;;2.47;1.30;;;11.60;99.70;;;;;;4954811;29;20236;-80
2022/05/03 07:15:30;;;;;;;4.00;1.17;;;11.80;99.30;;;;;;4955405;29;20703;-80
2022/05/03 07:23:26;;;;;;;1.63;1.20;;;12.10;95.80;;;;;;4956579;29;20192;-80
2022/05/03 07:25:53;;;;;;;2.63;1.00;;;12.20;95.90;;;;;;4956518;28;20169;-79
2022/05/03 07:28:18;;;;;;;1.85;1.10;;;12.40;95.30;;;;;;4956002;28;20178;-79
2022/05/03 07:30:44;;;;;;;2.05;1.02;;;12.50;95.00;;;;;;4954944;29;20177;-80
2022/05/03 07:33:10;;;;;;;2.08;0.90;;;12.60;94.90;;;;;;4955963;29;20616;-80
2022/05/03 07:35:35;;;;;;;2.00;1.30;;;12.60;94.20;;;;;;4956323;29;20189;-80
2022/05/03 07:38:01;;;;;;;4.38;1.13;;;12.70;94.40;;;;;;4956197;28;20183;-80
2022/05/03 07:40:28;;;;;;;2.13;1.67;;;12.80;93.90;;;;;;4960115;29;20219;-80
2022/05/03 07:42:54;;;;;;;1.70;1.60;;;12.90;94.40;;;;;;4959799;28;20260;-79
2022/05/03 07:45:20;;;;;;;2.80;1.90;;;12.90;95.70;;;;;;4960067;29;20188;-79
2022/05/03 07:47:46;;;;;;;4.63;1.85;;;12.90;95.50;;;;;;4959931;28;20196;-80
2022/05/03 07:50:11;;;;;;;3.85;2.03;;;13.00;96.10;;;;;;4960066;28;20198;-80
2022/05/03 07:52:38;;;;;;;1.85;1.70;;;13.20;94.80;;;;;;4959916;29;20192;-79
2022/05/03 07:55:06;;;;;;;3.55;1.52;;;13.20;95.10;;;;;;4959890;28;20204;-80
2022/05/03 07:57:32;;;;;;;2.58;1.70;;;13.30;95.80;;;;;;4959743;28;20185;-80
2022/05/03 07:59:58;;;;;;;4.18;1.65;;;13.30;94.80;;;;;;4959643;28;20182;-80
2022/05/03 08:02:25;;;;;;;2.08;1.40;;;13.40;94.70;;;;;;4959729;28;20173;-81
2022/05/03 08:04:54;;;;;;;2.88;1.95;;;13.60;94.10;;;;;;4959976;28;20375;-81
2022/05/03 08:07:21;;;;;;;9.65;2.50;;;13.70;95.30;;;;;;4959708;28;20480;-81
2022/05/03 08:09:48;;;;;;;4.70;2.17;;;13.80;94.20;;;;;;4958371;29;20189;-81
2022/05/03 08:12:15;;;;;;;3.72;1.80;;;13.90;94.00;;;;;;4959545;28;20184;-81
2022/05/03 08:14:41;;;;;;;2.47;1.90;;;14.10;94.50;;;;;;4959109;28;20205;-81
2022/05/03 08:17:08;;;;;;;3.22;1.85;;;14.10;94.30;;;;;;4959666;28;20165;-81
2022/05/03 08:19:34;;;;;;;5.30;1.85;;;14.10;93.80;;;;;;4959285;28;20181;-81
2022/05/03 08:22:00;;;;;;;2.28;1.90;;;14.20;95.30;;;;;;4959097;28;20232;-81
2022/05/03 08:24:26;;;;;;;3.90;2.10;;;14.40;93.80;;;;;;4959479;28;20177;-82
2022/05/03 08:26:52;;;;;;;2.78;2.08;;;14.50;94.40;;;;;;4959280;28;20196;-81
2022/05/03 08:29:19;;;;;;;2.55;2.00;;;14.60;93.40;;;;;;4958914;28;20636;-81
2022/05/03 08:31:45;;;;;;;3.83;2.50;;;14.80;94.40;;;;;;4959193;28;20188;-81
2022/05/03 08:34:11;;;;;;;6.28;2.40;;;14.90;93.90;;;;;;4959148;28;20209;-81
2022/05/03 08:36:37;;;;;;;5.18;2.30;;;14.90;93.70;;;;;;4959218;28;20165;-81
2022/05/03 08:42:07;;;;;;;3.00;2.63;;;15.00;93.50;;;;;;4959198;29;20498;-80
2022/05/03 08:44:34;;;;;;;4.47;2.60;;;15.10;93.30;;;;;;4958928;28;20164;-81
2022/05/03 08:47:00;;;;;;;4.03;2.53;;;15.20;93.50;;;;;;4957812;29;20525;-81
2022/05/03 08:49:52;;;;;;;3.70;2.45;;;15.20;93.90;;;;;;4957469;28;20208;-80
2022/05/03 08:52:21;;;;;;;3.15;2.53;;;15.20;93.80;;;;;;4957655;29;20188;-80
2022/05/03 08:54:48;;;;;;;6.15;3.13;;;15.20;93.10;;;;;;4957593;29;20217;-81
2022/05/03 08:57:14;;;;;;;4.90;2.58;;;15.20;93.30;;;;;;4958801;29;20197;-81
2022/05/03 08:59:43;;;;;;;5.05;2.55;;;15.20;93.90;;;;;;4958504;28;20181;-81
2022/05/03 09:02:10;;;;;;;4.65;2.75;;;15.30;93.60;;;;;;4958661;28;20181;-80
2022/05/03 09:04:35;;;;;;;5.85;3.70;;;15.40;94.50;;;;;;4958520;28;20174;-80
2022/05/03 09:07:24;;;;;;;3.78;3.33;;;15.50;93.30;;;;;;4958733;29;20565;-81
2022/05/03 09:09:51;;;;;;;3.85;3.30;;;15.50;94.20;;;;;;4957261;29;20719;-82
2022/05/03 09:12:30;;;;;;;5.93;3.25;;;15.60;93.80;;;;;;4958372;28;20563;-82
2022/05/03 09:15:01;;;;;;;3.38;3.08;;;15.60;93.80;;;;;;4956880;29;20208;-81
2022/05/03 09:17:39;;;;;;;5.40;3.50;;;15.70;94.50;;;;;;4957216;29;20173;-82
2022/05/03 09:25:54;;;;;;;9.05;3.88;;;15.90;93.50;;;;;;4958403;29;20611;-82
2022/05/03 09:28:22;;;;;;;8.88;3.55;;;15.90;93.50;;;;;;4957840;28;20268;-81
2022/05/03 09:30:52;;;;;;;4.70;3.70;;;16.00;93.10;;;;;;4958308;28;20177;-81
2022/05/03 09:33:23;;;;;;;4.85;3.63;;;15.90;93.80;;;;;;4957909;28;20236;-81
2022/05/03 09:35:50;;;;;;;7.03;3.63;;;16.00;93.80;;;;;;4958140;28;20177;-81
2022/05/03 09:38:17;;;;;;;5.28;3.88;;;16.10;94.30;;;;;;4958160;28;20166;-82
2022/05/03 09:40:45;;;;;;;6.57;4.00;;;16.10;93.70;;;;;;4958265;28;20291;-83
2022/05/03 09:43:12;;;;;;;5.07;3.78;;;16.10;93.10;;;;;;4957742;28;20246;-82
2022/05/03 09:45:38;;;;;;;5.38;4.03;;;15.90;93.00;;;;;;4957948;28;20166;-82
2022/05/03 09:48:05;;;;;;;5.13;4.13;;;16.00;93.70;;;;;;4957776;28;20248;-81
2022/05/03 09:50:45;;;;;;;4.70;3.83;;;16.20;92.50;;;;;;4957865;28;20177;-82
2022/05/03 09:53:17;;;;;;;5.57;4.25;;;16.20;92.70;;;;;;4956416;29;20276;-82
2022/05/03 09:55:45;;;;;;;4.30;3.47;;;16.30;93.40;;;;;;4956556;29;20644;-83
2022/05/03 09:58:11;;;;;;;5.40;3.90;;;16.40;93.40;;;;;;4956176;29;20221;-82
2022/05/03 10:00:40;;;;;;;5.28;3.67;;;16.50;93.10;;;;;;4956989;28;20185;-82
2022/05/03 10:03:07;;;;;;;9.25;4.00;;;16.60;92.80;;;;;;4957413;28;20174;-81
2022/05/03 10:05:34;;;;;;;9.00;4.30;;;16.90;93.40;;;;;;4957636;28;20204;-81
2022/05/03 10:08:02;;;;;;;4.25;3.80;;;16.90;94.30;;;;;;4957561;28;20248;-82
2022/05/03 10:10:29;;;;;;;5.38;3.88;;;17.10;94.40;;;;;;4956266;29;20200;-81
2022/05/03 10:12:56;;;;;;;8.70;3.90;;;17.40;93.10;;;;;;4957243;28;20213;-81
2022/05/03 10:21:24;;;;;;;4.38;3.40;;;17.30;91.20;;;;;;4957091;29;20227;-81
2022/05/03 10:24:08;;;;;;;4.40;3.58;;;17.40;93.70;;;;;;4957237;28;20172;-82
2022/05/03 10:26:53;;;;;;;4.95;4.13;;;17.60;90.70;;;;;;4955862;29;20537;-82
2022/05/03 10:29:25;;;;;;;4.60;3.60;;;17.70;92.00;;;;;;4955560;29;20185;-82
2022/05/03 10:31:55;;;;;;;5.57;2.70;;;17.80;90.80;;;;;;4957031;28;20185;-82
2022/05/03 10:34:40;;;;;;;3.47;3.13;;;17.80;91.60;;;;;;4956960;28;20264;-82
2022/05/03 10:37:21;;;;;;;4.70;3.25;;;17.90;90.60;;;;;;4957128;28;20188;-82
2022/05/03 10:39:57;;;;;;;5.50;3.08;;;18.10;90.20;;;;;;4956969;29;20188;-82
2022/05/03 10:42:28;;;;;;;5.38;3.10;;;18.00;91.10;;;;;;4956690;28;20193;-82
2022/05/03 10:45:10;;;;;;;6.05;3.67;;;18.00;90.60;;;;;;4956536;28;20197;-83
2022/05/03 10:47:53;;;;;;;4.22;3.03;;;18.00;89.00;;;;;;4955646;29;20174;-82
2022/05/03 10:50:32;;;;;;;6.43;3.55;;;18.00;90.70;;;;;;4956797;28;20169;-82
2022/05/03 10:53:02;;;;;;;4.50;3.80;;;17.90;89.80;;;;;;4956489;28;20174;-82
2022/05/03 10:55:32;;;;;;;4.88;3.88;;;18.00;88.00;;;;;;4956612;28;20263;-82
2022/05/03 10:58:20;;;;;;;6.75;4.25;;;17.80;89.10;;;;;;4955084;29;20191;-82
2022/05/03 11:01:20;;;;;;;4.93;3.45;;;17.80;90.20;;;;;;4955492;29;20188;-82
2022/05/03 11:03:48;;;;;;;4.28;3.85;;;18.00;93.30;;;;;;4955476;29;20173;-82
2022/05/03 11:11:44;;;;;;;4.50;3.00;;;18.70;91.80;;;;;;4956676;29;20162;-83
2022/05/03 11:14:22;;;;;;;4.20;3.15;;;18.80;90.90;;;;;;4954298;29;20315;-83
2022/05/03 11:17:03;;;;;;;3.30;2.78;;;19.00;91.60;;;;;;4955423;29;20228;-83
2022/05/03 11:19:31;;;;;;;4.57;3.00;;;19.20;90.30;;;;;;4955202;29;20169;-83
2022/05/03 11:21:58;;;;;;;4.35;3.28;;;19.30;90.90;;;;;;4956012;28;20225;-82
2022/05/03 11:24:26;;;;;;;5.72;2.70;;;19.40;91.10;;;;;;4955117;29;20189;-83
2022/05/03 11:27:01;;;;;;;4.13;2.42;;;19.50;91.60;;;;;;4956324;28;20188;-82
2022/05/03 11:29:29;;;;;;;2.90;2.60;;;19.70;90.40;;;;;;4956099;28;20609;-83
2022/05/03 11:31:58;;;;;;;6.45;2.65;;;19.70;90.80;;;;;;4956302;28;20173;-82
2022/05/03 11:34:24;;;;;;;5.47;2.70;;;19.90;89.40;;;;;;4956048;28;20205;-81
2022/05/03 11:36:50;;;;;;;3.80;2.85;;;19.60;85.00;;;;;;4954970;29;20274;-82
2022/05/03 11:39:20;;;;;;;6.13;3.03;;;19.40;86.90;;;;;;4954983;29;20605;-83
2022/05/03 11:41:47;;;;;;;2.92;2.28;;;18.80;85.60;;;;;;4954926;29;20181;-82
2022/05/03 11:44:14;;;;;;;5.47;2.50;;;18.70;87.00;;;;;;4956015;28;20177;-81
2022/05/03 11:46:43;;;;;;;3.97;1.98;;;18.40;88.00;;;;;;4956272;28;20520;-82
2022/05/03 11:49:10;;;;;;;3.83;1.70;;;18.00;86.60;;;;;;4956034;28;20196;-81
2022/05/03 11:57:22;;;;;;;3.10;2.05;;;18.70;90.50;;;;;;4956197;29;20313;-81
2022/05/03 11:59:49;;;;;;;2.60;2.05;;;19.00;88.30;;;;;;4954357;29;20177;-82
2022/05/03 12:02:17;;;;;;;2.35;2.15;;;19.20;89.80;;;;;;4954818;29;20177;-81
2022/05/03 12:05:05;;;;;;;2.78;2.03;;;19.50;90.00;;;;;;4955865;28;20256;-83
2022/05/03 12:07:52;;;;;;;4.80;2.67;;;19.50;87.00;;;;;;4955867;29;20208;-81
2022/05/03 12:10:28;;;;;;;3.85;2.20;;;19.20;88.20;;;;;;4956063;28;20709;-82
2022/05/03 12:13:13;;;;;;;2.83;2.33;;;18.80;87.90;;;;;;4955775;29;20219;-82
2022/05/03 12:15:40;;;;;;;6.68;1.98;;;18.50;88.20;;;;;;4954766;29;20630;-82
2022/05/03 12:18:16;;;;;;;4.78;1.85;;;18.40;87.10;;;;;;4954503;29;20184;-81
2022/05/03 12:20:48;;;;;;;2.67;2.13;;;18.20;89.80;;;;;;4955706;28;20235;-83
2022/05/03 12:23:36;;;;;;;3.05;1.98;;;18.10;86.40;;;;;;4954529;28;20181;-83
2022/05/03 12:26:37;;;;;;;3.80;1.90;;;17.90;86.70;;;;;;4959526;28;20196;-81
2022/05/03 12:29:04;;;;;;;2.35;1.73;;;17.60;86.10;;;;;;4957705;29;20228;-81
2022/05/03 12:31:35;;;;;;;2.10;1.90;;;17.60;90.70;;;;;;4959283;28;20497;-82
2022/05/03 12:34:03;;;;;;;6.22;2.15;;;17.90;90.20;;;;;;4957993;29;20201;-83
2022/05/03 12:36:40;;;;;;;2.85;1.90;;;18.50;86.70;;;;;;4959441;28;20169;-81
2022/05/03 12:39:17;;;;;;;3.75;2.42;;;19.00;88.90;;;;;;4958924;28;20165;-82
2022/05/03 12:41:45;;;;;;;2.45;2.13;;;19.30;90.40;;;;;;4957907;29;20176;-81
2022/05/03 12:44:13;;;;;;;3.97;1.88;;;19.00;89.40;;;;;;4958829;28;20533;-81
2022/05/03 12:46:39;;;;;;;2.75;1.50;;;18.80;88.70;;;;;;4959106;28;20170;-81
2022/05/03 12:49:11;;;;;;;2.60;1.33;;;18.70;89.10;;;;;;4958964;28;20168;-81
2022/05/03 12:51:38;;;;;;;1.90;1.40;;;18.70;86.10;;;;;;4958842;28;20161;-81
2022/05/03 12:54:05;;;;;;;2.95;1.83;;;18.50;88.50;;;;;;4959057;28;20197;-81
2022/05/03 12:59:15;;;;;;;4.35;1.70;;;18.30;88.70;;;;;;4958861;29;20229;-81
2022/05/03 13:01:44;;;;;;;1.80;1.70;;;18.20;89.00;;;;;;4958765;29;20182;-81
2022/05/03 13:04:10;;;;;;;1.70;1.50;;;18.10;89.20;;;;;;4958499;28;20608;-81
2022/05/03 13:06:36;;;;;;;3.03;1.80;;;18.10;90.00;;;;;;4958938;28;20567;-82
2022/05/03 13:09:03;;;;;;;2.25;1.73;;;18.10;87.40;;;;;;4958625;28;20235;-81
2022/05/03 13:11:30;;;;;;;2.22;1.60;;;18.10;88.60;;;;;;4957179;29;20217;-81
2022/05/03 13:13:55;;;;;;;4.18;1.73;;;18.30;85.60;;;;;;4957004;29;20205;-82
2022/05/03 13:16:21;;;;;;;1.85;1.30;;;18.40;86.60;;;;;;4957481;29;20620;-81
2022/05/03 13:18:47;;;;;;;3.42;1.80;;;18.60;84.40;;;;;;4956996;29;20264;-79
2022/05/03 13:21:13;;;;;;;3.22;1.30;;;18.70;84.20;;;;;;4958352;28;20612;-81
2022/05/03 13:23:39;;;;;;;3.20;1.80;;;18.50;84.40;;;;;;4958302;28;20180;-81
2022/05/03 13:26:04;;;;;;;2.85;1.40;;;18.20;87.00;;;;;;4957079;29;20181;-81
2022/05/03 13:28:30;;;;;;;2.03;1.58;;;18.10;86.20;;;;;;4957946;29;20284;-81
2022/05/03 13:30:56;;;;;;;6.40;1.50;;;18.00;88.30;;;;;;4956797;29;20588;-81
2022/05/03 13:33:22;;;;;;;1.75;1.30;;;17.90;86.60;;;;;;4956713;29;20710;-80
2022/05/03 13:41:17;;;;;;;2.88;1.60;;;17.90;86.90;;;;;;4958173;29;20724;-81
2022/05/03 13:43:43;;;;;;;2.10;1.55;;;18.30;88.20;;;;;;4957601;28;20181;-81
2022/05/03 13:46:09;;;;;;;1.33;1.23;;;18.40;86.10;;;;;;4956606;29;20239;-82
2022/05/03 13:48:34;;;;;;;3.50;1.63;;;18.40;87.60;;;;;;4957931;29;20177;-82
2022/05/03 13:51:03;;;;;;;3.97;1.90;;;18.50;86.30;;;;;;4957624;29;20683;-81
2022/05/03 13:53:29;;;;;;;3.90;2.17;;;18.40;87.80;;;;;;4957601;28;20201;-81
2022/05/03 13:55:54;;;;;;;3.40;1.80;;;18.40;86.10;;;;;;4956537;29;20699;-81